Terminal Aerodrome Forecast
Issued by NWS Twin Cities, MN

Home | Current Version | Previous Version | Text Only | Print | Product List | Glossary Off
Versions: 1 2 3 4 5 6 7 8 9 10 11 12 13 14 15 16 17 18 19 20 21 22 23 24 25

000
FTUS43 KMPX 191700
TAFSTC
TAF
KSTC 191739Z 1918/2018 18014G22KT 6SM BR SCT009 OVC012
     FM191930 20013G20KT P6SM BKN020
     FM192200 21010KT P6SM SCT025 BKN150
     FM200600 28008KT P6SM SKC
     FM201500 30010KT P6SM FEW250=

USA.gov is the U.S. government's official web portal to all federal, state and local government web resources and services.